Time;durP1;ratioP1;P1;durP2;ratioP2;P2;SDS_P1;SDS_P2;PMS_P1;PMS_P2;Temp;Humidity;BMP_temperature;BMP_pressure;BME280_temperature;BME280_humidity;BME280_pressure;Samples;Min_cycle;Max_cycle;Signal;HPM_P1;HPM_P2
2022/07/28 00:02:18;;;;;;;2.75;2.20;;;27.20;35.60;;;;;;5088274;28;45501;-74
2022/07/28 00:04:45;;;;;;;2.13;1.85;;;27.20;35.60;;;;;;5087999;28;46404;-74
2022/07/28 00:07:13;;;;;;;2.30;2.10;;;27.20;36.30;;;;;;5088234;28;45340;-74
2022/07/28 00:09:40;;;;;;;4.22;2.10;;;27.20;35.70;;;;;;5088126;28;45221;-74
2022/07/28 00:12:07;;;;;;;2.70;2.03;;;27.20;35.70;;;;;;5088164;28;45281;-74
2022/07/28 00:14:34;;;;;;;2.30;2.10;;;27.20;35.80;;;;;;5087589;28;46562;-74
2022/07/28 00:17:01;;;;;;;2.85;1.98;;;27.20;35.70;;;;;;5087738;28;45304;-74
2022/07/28 00:19:28;;;;;;;2.65;2.10;;;27.10;35.70;;;;;;5088019;28;45253;-74
2022/07/28 00:21:54;;;;;;;2.58;2.05;;;27.10;35.80;;;;;;5087236;28;45175;-74
2022/07/28 00:24:23;;;;;;;2.20;2.00;;;27.10;35.70;;;;;;5087533;28;46415;-74
2022/07/28 00:26:50;;;;;;;2.47;1.90;;;27.10;35.80;;;;;;5087650;28;45295;-74
2022/07/28 00:29:16;;;;;;;2.10;1.90;;;27.10;35.80;;;;;;5087730;28;45280;-74
2022/07/28 00:31:43;;;;;;;4.50;2.30;;;27.10;35.90;;;;;;5087765;28;45202;-74
2022/07/28 00:34:10;;;;;;;2.05;1.85;;;27.00;35.90;;;;;;5086412;28;46445;-74
2022/07/28 00:36:37;;;;;;;2.10;1.75;;;27.00;35.80;;;;;;5087500;28;45235;-74
2022/07/28 00:39:04;;;;;;;1.92;1.73;;;27.00;35.90;;;;;;5087324;28;45346;-74
2022/07/28 00:41:32;;;;;;;2.03;1.85;;;27.00;35.90;;;;;;5087776;28;45408;-74
2022/07/28 00:43:59;;;;;;;2.60;2.00;;;27.00;36.00;;;;;;5087217;28;45756;-74
2022/07/28 00:46:26;;;;;;;2.30;2.10;;;27.00;36.00;;;;;;5087455;28;45233;-74
2022/07/28 00:48:53;;;;;;;2.25;1.80;;;27.00;35.90;;;;;;5087287;28;45315;-74
2022/07/28 00:51:22;;;;;;;2.90;1.80;;;26.90;36.00;;;;;;5087640;28;45402;-73
2022/07/28 00:53:49;;;;;;;1.80;1.70;;;26.90;36.00;;;;;;5087196;28;45415;-74
2022/07/28 00:56:15;;;;;;;2.58;1.65;;;26.90;36.00;;;;;;5087219;28;45189;-74
2022/07/28 00:58:46;;;;;;;2.35;1.80;;;26.90;36.00;;;;;;5087436;28;45308;-73
2022/07/28 01:01:14;;;;;;;4.00;1.83;;;26.90;36.00;;;;;;5087330;28;45206;-74
2022/07/28 01:03:43;;;;;;;2.00;1.77;;;26.80;36.00;;;;;;5086922;28;46649;-74
2022/07/28 01:06:15;;;;;;;2.78;1.80;;;26.80;36.00;;;;;;5087224;28;45261;-73
2022/07/28 01:08:51;;;;;;;2.15;1.80;;;26.80;36.00;;;;;;5087205;28;45135;-73
2022/07/28 01:11:21;;;;;;;2.20;2.00;;;26.80;36.00;;;;;;5087295;28;45347;-73
2022/07/28 01:13:55;;;;;;;2.22;1.88;;;26.80;36.10;;;;;;5086518;28;45717;-74
2022/07/28 01:16:21;;;;;;;1.73;1.63;;;26.70;36.10;;;;;;5086422;28;45244;-73
2022/07/28 01:18:49;;;;;;;1.77;1.67;;;26.70;36.00;;;;;;5086957;28;45186;-74
2022/07/28 01:21:17;;;;;;;1.80;1.42;;;26.70;36.10;;;;;;5087141;28;45179;-73
2022/07/28 01:24:08;;;;;;;2.97;1.65;;;26.70;36.20;;;;;;5086705;28;45446;-74
2022/07/28 01:26:41;;;;;;;1.80;1.60;;;26.70;36.20;;;;;;5081580;28;45170;-73
2022/07/28 01:29:24;;;;;;;2.15;1.20;;;26.60;36.10;;;;;;5086631;28;45308;-74
2022/07/28 01:31:57;;;;;;;1.70;1.60;;;26.60;36.20;;;;;;5086286;28;45336;-73
2022/07/28 01:34:27;;;;;;;1.80;1.50;;;26.60;36.10;;;;;;5086006;28;45343;-74
2022/07/28 01:36:56;;;;;;;2.22;1.40;;;26.60;36.20;;;;;;5086584;28;45213;-74
2022/07/28 01:39:24;;;;;;;2.00;1.50;;;26.60;36.20;;;;;;5086479;27;45299;-73
2022/07/28 01:41:50;;;;;;;2.47;1.38;;;26.60;36.20;;;;;;5086908;28;45280;-73
2022/07/28 01:44:20;;;;;;;1.45;1.35;;;26.50;36.10;;;;;;5087713;27;46413;-74
2022/07/28 01:46:47;;;;;;;1.67;1.52;;;26.50;36.30;;;;;;5087540;28;45220;-73
2022/07/28 01:49:15;;;;;;;1.52;1.38;;;26.50;36.30;;;;;;5090286;28;45252;-73
2022/07/28 01:51:42;;;;;;;1.73;1.60;;;26.50;36.20;;;;;;5090452;28;45589;-73
2022/07/28 01:54:08;;;;;;;1.92;1.38;;;26.40;36.20;;;;;;5089873;28;46655;-74
2022/07/28 01:56:35;;;;;;;1.60;1.50;;;26.50;36.30;;;;;;5090099;28;45257;-73
2022/07/28 01:59:04;;;;;;;1.98;1.30;;;26.40;36.30;;;;;;5090238;28;45195;-73
2022/07/28 02:01:31;;;;;;;1.48;1.33;;;26.40;36.30;;;;;;5090548;28;45426;-73
2022/07/28 02:03:58;;;;;;;2.22;1.60;;;26.40;36.30;;;;;;5089731;28;45468;-73
2022/07/28 02:06:26;;;;;;;1.48;1.38;;;26.40;36.30;;;;;;5089433;28;45182;-73
2022/07/28 02:08:53;;;;;;;1.67;1.50;;;26.40;36.40;;;;;;5089396;28;45370;-73
2022/07/28 02:14:04;;;;;;;1.83;1.33;;;26.30;36.30;;;;;;5089949;28;45816;-73
2022/07/28 02:16:31;;;;;;;1.58;1.48;;;26.30;36.40;;;;;;5089772;28;45360;-73
2022/07/28 02:18:58;;;;;;;1.40;1.25;;;26.30;36.40;;;;;;5089789;28;45201;-73
2022/07/28 02:21:26;;;;;;;3.15;1.70;;;26.30;36.40;;;;;;5087355;28;45210;-73
2022/07/28 02:23:53;;;;;;;1.30;1.20;;;26.30;36.40;;;;;;5089511;28;46847;-74
2022/07/28 02:26:27;;;;;;;1.50;1.40;;;26.20;36.40;;;;;;5086306;28;45458;-72
2022/07/28 02:28:55;;;;;;;1.52;1.40;;;26.20;36.40;;;;;;5088972;28;45303;-73
2022/07/28 02:31:24;;;;;;;1.50;1.40;;;26.30;36.50;;;;;;5089614;28;45210;-73
2022/07/28 02:33:51;;;;;;;1.98;1.48;;;26.20;36.50;;;;;;5089459;28;45608;-73
2022/07/28 02:36:24;;;;;;;1.63;1.52;;;26.20;36.50;;;;;;5089292;28;45303;-73
2022/07/28 02:38:53;;;;;;;1.77;1.15;;;26.20;36.50;;;;;;5089363;28;45313;-73
2022/07/28 02:41:24;;;;;;;1.50;1.40;;;26.20;36.60;;;;;;5089634;28;45309;-73
2022/07/28 02:43:52;;;;;;;1.55;1.42;;;26.20;37.30;;;;;;5089237;28;45728;-73
2022/07/28 02:46:20;;;;;;;1.17;1.10;;;26.10;36.50;;;;;;5089238;28;45246;-73
2022/07/28 02:48:49;;;;;;;1.48;1.38;;;26.10;36.50;;;;;;5086672;28;45295;-73
2022/07/28 02:51:15;;;;;;;1.30;1.20;;;26.10;36.60;;;;;;5089452;28;45182;-73
2022/07/28 02:53:42;;;;;;;2.35;1.17;;;26.00;36.60;;;;;;5088915;28;46727;-73
2022/07/28 02:56:10;;;;;;;1.30;1.20;;;26.10;36.90;;;;;;5088113;27;45314;-73
2022/07/28 02:58:37;;;;;;;1.88;1.35;;;26.00;36.70;;;;;;5089087;28;45352;-73
2022/07/28 03:01:04;;;;;;;1.35;1.20;;;26.00;36.60;;;;;;5089337;28;45293;-73
2022/07/28 03:03:31;;;;;;;1.15;1.05;;;26.00;36.70;;;;;;5088993;28;46900;-73
2022/07/28 03:05:58;;;;;;;1.85;1.10;;;26.00;36.60;;;;;;5089049;28;45356;-73
2022/07/28 03:08:24;;;;;;;1.20;1.20;;;26.00;36.70;;;;;;5088956;28;45221;-73
2022/07/28 03:11:07;;;;;;;1.30;1.20;;;25.90;36.60;;;;;;5088812;28;45553;-73
2022/07/28 03:13:35;;;;;;;1.48;1.10;;;25.90;36.60;;;;;;5088952;28;45350;-73
2022/07/28 03:16:02;;;;;;;1.20;1.20;;;25.90;36.70;;;;;;5089221;28;45273;-73
2022/07/28 03:18:29;;;;;;;2.95;1.17;;;25.90;36.70;;;;;;5088943;28;45174;-73
2022/07/28 03:20:56;;;;;;;1.52;1.30;;;25.90;37.40;;;;;;5070800;28;45308;-73
2022/07/28 03:23:24;;;;;;;1.38;1.00;;;25.90;36.80;;;;;;5088298;28;47593;-73
2022/07/28 03:25:51;;;;;;;1.40;1.20;;;25.80;36.70;;;;;;5087916;28;45371;-73
2022/07/28 03:28:20;;;;;;;1.10;1.02;;;25.90;36.80;;;;;;5088683;28;45204;-73
2022/07/28 03:30:52;;;;;;;1.02;1.00;;;25.80;36.70;;;;;;5088872;28;45418;-73
2022/07/28 03:33:19;;;;;;;2.35;1.27;;;25.80;36.70;;;;;;5085770;28;46151;-73
2022/07/28 03:35:47;;;;;;;0.90;0.90;;;25.80;36.80;;;;;;5088362;28;45205;-73
2022/07/28 03:38:15;;;;;;;1.42;1.25;;;25.80;36.80;;;;;;5088437;28;45334;-72
2022/07/28 03:40:42;;;;;;;1.40;1.00;;;25.80;36.80;;;;;;5088865;28;45384;-73
2022/07/28 03:43:09;;;;;;;1.08;1.08;;;25.70;36.80;;;;;;5088208;28;45490;-73
2022/07/28 03:45:36;;;;;;;1.92;1.20;;;25.70;36.80;;;;;;5088296;28;45298;-73
2022/07/28 03:48:05;;;;;;;1.20;0.98;;;25.70;36.80;;;;;;5088312;28;45232;-73
2022/07/28 03:50:32;;;;;;;1.23;1.13;;;25.70;36.80;;;;;;5088521;28;45225;-73
2022/07/28 03:53:01;;;;;;;1.98;1.50;;;25.70;36.90;;;;;;5085338;28;45229;-73
2022/07/28 03:55:28;;;;;;;2.63;1.25;;;25.70;36.80;;;;;;5088614;28;45319;-73
2022/07/28 03:57:56;;;;;;;1.10;0.98;;;25.60;36.80;;;;;;5088524;28;45349;-73
2022/07/28 04:00:24;;;;;;;2.13;1.10;;;25.60;36.90;;;;;;5088345;28;45395;-72
2022/07/28 04:02:51;;;;;;;1.08;1.00;;;25.60;36.90;;;;;;5088192;28;46527;-72
2022/07/28 04:05:19;;;;;;;1.10;1.08;;;25.60;36.90;;;;;;5088153;28;46389;-73
2022/07/28 04:07:46;;;;;;;1.52;1.10;;;25.50;36.90;;;;;;5088031;27;45289;-72
2022/07/28 04:10:14;;;;;;;1.00;1.00;;;25.50;36.90;;;;;;5088275;28;45441;-72
2022/07/28 04:12:48;;;;;;;1.35;0.93;;;25.50;36.90;;;;;;5087444;28;46750;-72
2022/07/28 04:15:15;;;;;;;1.10;1.00;;;25.50;36.90;;;;;;5087727;28;45143;-71
2022/07/28 04:17:42;;;;;;;2.08;1.25;;;25.50;36.80;;;;;;5087243;28;45236;-73
2022/07/28 04:20:09;;;;;;;1.85;1.08;;;25.50;36.90;;;;;;5087952;28;44739;-73
2022/07/28 04:22:38;;;;;;;1.65;1.27;;;25.50;36.90;;;;;;5087068;28;45454;-72
2022/07/28 04:25:05;;;;;;;1.10;0.93;;;25.50;36.90;;;;;;5087629;28;45339;-73
2022/07/28 04:27:32;;;;;;;1.98;1.10;;;25.50;36.90;;;;;;5087775;28;45112;-73
2022/07/28 04:29:59;;;;;;;1.50;1.00;;;25.50;37.00;;;;;;5087844;28;45407;-73
2022/07/28 04:32:25;;;;;;;1.23;1.10;;;25.40;36.90;;;;;;5087177;28;45311;-73
2022/07/28 04:34:52;;;;;;;1.38;1.10;;;25.40;36.90;;;;;;5087020;28;45240;-72
2022/07/28 04:37:19;;;;;;;1.20;0.90;;;25.40;36.90;;;;;;5087660;28;45210;-73
2022/07/28 04:39:49;;;;;;;1.92;1.15;;;25.40;36.90;;;;;;5087640;28;45341;-72
2022/07/28 04:42:17;;;;;;;1.08;1.00;;;25.40;37.20;;;;;;5087304;28;45439;-73
2022/07/28 04:44:44;;;;;;;2.22;1.15;;;25.40;36.90;;;;;;5087517;28;45316;-72
2022/07/28 04:47:11;;;;;;;1.98;1.00;;;25.40;36.80;;;;;;5087742;28;45320;-73
2022/07/28 04:49:38;;;;;;;1.52;0.90;;;25.30;36.90;;;;;;5087498;28;45233;-73
2022/07/28 04:52:07;;;;;;;1.02;0.98;;;25.20;36.80;;;;;;5087112;28;46408;-73
2022/07/28 04:54:33;;;;;;;0.80;0.80;;;25.20;36.90;;;;;;5087328;28;45355;-73
2022/07/28 04:57:02;;;;;;;0.95;0.95;;;25.20;36.90;;;;;;5087382;28;45258;-72
2022/07/28 04:59:29;;;;;;;1.80;1.20;;;25.20;36.90;;;;;;5087538;28;45395;-72
2022/07/28 05:01:56;;;;;;;1.15;1.00;;;25.20;36.90;;;;;;5087150;28;45728;-72
2022/07/28 05:04:23;;;;;;;0.80;0.80;;;25.20;37.60;;;;;;5086374;28;45300;-73
2022/07/28 05:06:50;;;;;;;1.50;0.90;;;25.20;37.00;;;;;;5087234;28;45155;-73
2022/07/28 05:09:17;;;;;;;1.10;1.00;;;25.20;37.00;;;;;;5087275;28;45408;-73
2022/07/28 05:11:44;;;;;;;1.08;1.02;;;25.20;36.90;;;;;;5086844;28;46678;-73
2022/07/28 05:14:12;;;;;;;0.93;0.93;;;25.20;36.90;;;;;;5086671;28;45313;-72
2022/07/28 05:16:39;;;;;;;0.98;0.88;;;25.20;37.00;;;;;;5087110;28;45306;-73
2022/07/28 05:19:06;;;;;;;0.90;0.90;;;25.20;37.60;;;;;;5086834;27;45396;-73
2022/07/28 05:21:33;;;;;;;1.08;1.00;;;25.10;36.90;;;;;;5086719;28;45441;-73
2022/07/28 05:24:00;;;;;;;1.02;0.93;;;25.10;37.00;;;;;;5086863;28;45395;-73
2022/07/28 05:26:27;;;;;;;1.00;1.00;;;25.10;37.70;;;;;;5087060;28;45281;-73
2022/07/28 05:28:54;;;;;;;1.02;0.90;;;25.10;37.10;;;;;;5086956;28;45554;-73
2022/07/28 05:31:22;;;;;;;1.20;0.95;;;25.10;37.00;;;;;;5086755;28;46315;-73
2022/07/28 05:33:49;;;;;;;0.95;0.90;;;25.10;37.00;;;;;;5086660;28;45193;-73
2022/07/28 05:36:16;;;;;;;1.00;0.93;;;25.10;36.90;;;;;;5086448;28;45147;-73
2022/07/28 05:38:42;;;;;;;1.20;1.10;;;25.10;36.90;;;;;;5094007;27;45226;-73
2022/07/28 05:41:09;;;;;;;1.60;0.82;;;25.10;37.00;;;;;;5106923;27;45386;-73
2022/07/28 05:43:37;;;;;;;1.63;0.77;;;25.10;37.00;;;;;;5107260;27;45273;-73
2022/07/28 05:46:04;;;;;;;1.30;0.98;;;25.10;37.00;;;;;;5107111;27;45229;-73
2022/07/28 05:48:32;;;;;;;1.73;0.88;;;25.20;37.00;;;;;;5106763;27;45327;-71
2022/07/28 05:50:59;;;;;;;0.85;0.75;;;25.10;36.90;;;;;;5106057;27;45644;-73
2022/07/28 05:53:26;;;;;;;0.90;0.90;;;25.10;36.90;;;;;;5106761;27;45259;-74
2022/07/28 05:55:53;;;;;;;0.77;0.77;;;25.10;37.00;;;;;;5107230;27;45283;-73
2022/07/28 05:58:21;;;;;;;1.00;1.00;;;25.10;36.90;;;;;;5107224;27;45300;-73
2022/07/28 06:00:47;;;;;;;1.42;0.90;;;25.10;37.00;;;;;;5106731;27;45242;-73
2022/07/28 06:03:15;;;;;;;1.38;0.90;;;25.10;37.00;;;;;;5106697;27;45190;-72
2022/07/28 06:05:43;;;;;;;1.05;0.90;;;25.10;37.00;;;;;;5106985;27;45217;-73
2022/07/28 06:08:10;;;;;;;1.08;0.95;;;25.10;37.00;;;;;;5107239;27;45217;-73
2022/07/28 06:13:17;;;;;;;2.30;0.90;;;25.10;37.00;;;;;;5105242;27;45379;-73
2022/07/28 06:15:46;;;;;;;1.40;0.80;;;25.10;37.10;;;;;;5106836;27;45315;-73
2022/07/28 06:18:13;;;;;;;0.90;0.90;;;25.10;37.00;;;;;;5106862;27;45427;-73
2022/07/28 06:20:39;;;;;;;0.80;0.77;;;25.10;37.00;;;;;;5106568;27;46693;-73
2022/07/28 06:23:08;;;;;;;0.80;0.80;;;25.10;37.00;;;;;;5106525;27;45256;-73
2022/07/28 06:25:34;;;;;;;1.15;0.90;;;25.10;37.00;;;;;;5106579;27;45285;-73
2022/07/28 06:28:02;;;;;;;1.75;0.95;;;25.10;37.10;;;;;;5106845;27;45549;-73
2022/07/28 06:30:29;;;;;;;0.93;0.90;;;25.10;37.10;;;;;;5106390;27;46711;-73
2022/07/28 06:32:56;;;;;;;1.35;0.90;;;25.10;37.10;;;;;;5110056;27;45129;-73
2022/07/28 06:35:23;;;;;;;0.80;0.80;;;25.10;37.20;;;;;;5110031;27;45225;-73
2022/07/28 06:37:50;;;;;;;1.23;0.88;;;25.10;37.00;;;;;;5110076;27;45491;-73
2022/07/28 06:40:19;;;;;;;0.88;0.70;;;25.10;37.10;;;;;;5109212;27;46286;-73
2022/07/28 06:42:46;;;;;;;0.95;0.90;;;25.10;37.00;;;;;;5109726;27;45218;-73
2022/07/28 06:45:14;;;;;;;1.15;1.00;;;25.10;37.10;;;;;;5110288;27;45227;-73
2022/07/28 06:47:40;;;;;;;1.02;0.82;;;25.10;37.10;;;;;;5110157;27;45280;-73
2022/07/28 06:50:08;;;;;;;1.00;1.00;;;25.20;37.10;;;;;;5109843;27;46549;-73
2022/07/28 06:52:35;;;;;;;0.88;0.88;;;25.20;37.10;;;;;;5109733;27;45238;-73
2022/07/28 06:55:02;;;;;;;0.90;0.90;;;25.20;37.10;;;;;;5109818;27;45300;-73
2022/07/28 06:57:32;;;;;;;0.70;0.70;;;25.20;37.10;;;;;;5109920;27;45451;-73
2022/07/28 06:59:59;;;;;;;1.00;0.90;;;25.20;37.00;;;;;;5109549;27;45660;-73
2022/07/28 07:02:25;;;;;;;1.55;0.85;;;25.20;37.10;;;;;;5109549;27;45269;-73
2022/07/28 07:04:52;;;;;;;0.98;0.90;;;25.20;37.10;;;;;;5109749;27;45264;-73
2022/07/28 07:07:20;;;;;;;1.13;1.02;;;25.30;37.10;;;;;;5109738;27;45236;-73
2022/07/28 07:09:47;;;;;;;0.70;0.70;;;25.30;37.00;;;;;;5109436;27;45367;-73
2022/07/28 07:12:13;;;;;;;0.80;0.80;;;25.30;37.00;;;;;;5109354;27;45363;-73
2022/07/28 07:14:42;;;;;;;1.27;0.88;;;25.40;37.10;;;;;;5109516;27;45204;-73
2022/07/28 07:17:08;;;;;;;0.98;0.70;;;25.30;37.00;;;;;;5109678;27;45407;-73
2022/07/28 07:19:35;;;;;;;1.20;0.90;;;25.40;37.10;;;;;;5106728;27;46764;-73
2022/07/28 07:22:02;;;;;;;1.95;0.80;;;25.40;37.00;;;;;;5109140;27;45435;-73
2022/07/28 07:24:29;;;;;;;0.95;0.80;;;25.40;37.00;;;;;;5109565;27;45299;-73
2022/07/28 07:26:56;;;;;;;2.15;0.98;;;25.40;37.00;;;;;;5109032;27;45135;-73
2022/07/28 07:29:23;;;;;;;1.17;1.02;;;25.50;37.10;;;;;;5108988;27;46362;-73
2022/07/28 07:31:51;;;;;;;0.90;0.90;;;25.40;37.00;;;;;;5108973;27;45188;-73
2022/07/28 07:34:18;;;;;;;1.48;0.90;;;25.40;37.10;;;;;;5109138;27;45376;-73
2022/07/28 07:36:45;;;;;;;0.75;0.75;;;25.40;37.10;;;;;;5109194;27;45284;-73
2022/07/28 07:39:12;;;;;;;1.23;1.00;;;25.50;37.20;;;;;;5108791;27;45239;-73
2022/07/28 07:41:39;;;;;;;0.90;0.90;;;25.50;37.20;;;;;;5108472;27;45201;-73
2022/07/28 07:44:06;;;;;;;0.75;0.75;;;25.50;37.20;;;;;;5109093;27;45353;-73
2022/07/28 07:46:32;;;;;;;0.88;0.88;;;25.50;37.20;;;;;;5109073;27;45234;-74
2022/07/28 07:49:01;;;;;;;1.38;0.93;;;25.50;37.20;;;;;;5108933;27;45373;-73
2022/07/28 07:51:28;;;;;;;1.08;0.77;;;25.50;37.20;;;;;;5108901;27;45208;-73
2022/07/28 07:53:54;;;;;;;0.90;0.80;;;25.50;37.20;;;;;;5109105;27;45284;-73
2022/07/28 07:56:21;;;;;;;0.82;0.82;;;25.50;37.20;;;;;;5108890;27;45253;-73
2022/07/28 07:58:50;;;;;;;2.13;0.98;;;25.50;37.20;;;;;;5108634;27;45252;-73
2022/07/28 08:01:17;;;;;;;0.77;0.70;;;25.50;37.20;;;;;;5108792;27;45169;-73
2022/07/28 08:03:45;;;;;;;0.95;0.85;;;25.60;37.20;;;;;;5108668;27;45186;-73
2022/07/28 08:06:13;;;;;;;1.75;0.90;;;25.60;37.30;;;;;;5108975;27;45510;-73
2022/07/28 08:08:41;;;;;;;1.10;0.90;;;25.60;37.30;;;;;;5108398;27;46538;-74
2022/07/28 08:11:09;;;;;;;0.75;0.75;;;25.60;37.80;;;;;;5108214;27;45275;-72
2022/07/28 08:13:36;;;;;;;1.27;0.73;;;25.70;37.20;;;;;;5107938;27;45337;-73
2022/07/28 08:16:03;;;;;;;0.98;0.88;;;25.70;37.30;;;;;;5108446;27;45313;-73
2022/07/28 08:18:30;;;;;;;0.70;0.70;;;25.70;37.20;;;;;;5108275;27;46372;-73
2022/07/28 08:20:57;;;;;;;0.80;0.80;;;25.70;37.20;;;;;;5108226;27;45180;-73
2022/07/28 08:23:25;;;;;;;1.35;0.70;;;25.70;37.10;;;;;;5108569;27;45138;-73
2022/07/28 08:25:52;;;;;;;0.70;0.70;;;25.80;37.20;;;;;;5108592;27;45299;-73
2022/07/28 08:28:18;;;;;;;0.98;0.90;;;25.80;37.10;;;;;;5108251;27;46382;-74
2022/07/28 08:30:45;;;;;;;0.80;0.80;;;25.80;37.10;;;;;;5107842;27;45238;-74
2022/07/28 08:33:12;;;;;;;0.98;0.93;;;25.80;37.10;;;;;;5108337;27;45227;-74
2022/07/28 08:35:40;;;;;;;1.20;0.80;;;25.80;37.00;;;;;;5108096;27;45378;-73
2022/07/28 08:38:07;;;;;;;1.15;1.00;;;25.90;37.10;;;;;;5107722;27;46420;-73
2022/07/28 08:40:35;;;;;;;1.02;1.00;;;25.90;37.60;;;;;;5108410;27;45336;-73
2022/07/28 08:43:05;;;;;;;4.00;1.30;;;25.90;37.30;;;;;;5108182;27;45250;-73
2022/07/28 08:45:32;;;;;;;2.72;1.63;;;25.90;38.90;;;;;;5108484;27;45353;-73
2022/07/28 08:47:59;;;;;;;2.25;1.48;;;25.90;39.10;;;;;;5110570;27;46396;-73
2022/07/28 08:50:26;;;;;;;2.80;1.33;;;25.80;39.50;;;;;;5108254;27;45175;-73
2022/07/28 08:52:53;;;;;;;2.28;1.30;;;25.80;39.70;;;;;;5109621;27;45130;-73
2022/07/28 08:55:23;;;;;;;3.72;1.60;;;25.80;39.70;;;;;;5107721;27;45542;-74
2022/07/28 08:57:53;;;;;;;2.17;1.48;;;25.80;40.00;;;;;;5107817;27;46432;-73
2022/07/28 09:00:20;;;;;;;4.07;1.63;;;25.80;39.90;;;;;;5107227;27;45240;-74
2022/07/28 09:02:47;;;;;;;3.63;1.60;;;25.80;39.80;;;;;;5108045;27;45230;-74
2022/07/28 09:05:14;;;;;;;2.97;1.50;;;25.80;40.30;;;;;;5107780;27;45374;-74
2022/07/28 09:07:41;;;;;;;2.05;1.20;;;25.90;39.90;;;;;;5107820;27;45353;-73
2022/07/28 09:10:10;;;;;;;2.05;1.42;;;25.90;39.80;;;;;;5107418;27;45247;-73
2022/07/28 09:12:36;;;;;;;3.28;1.50;;;25.90;40.30;;;;;;5107673;27;45284;-73
2022/07/28 09:15:05;;;;;;;4.07;2.00;;;25.90;40.10;;;;;;5107608;27;45322;-73
2022/07/28 09:17:32;;;;;;;1.90;1.65;;;25.90;40.40;;;;;;5107371;27;45212;-73
2022/07/28 09:19:59;;;;;;;3.47;1.88;;;25.90;40.50;;;;;;5104855;27;45270;-73
2022/07/28 09:22:26;;;;;;;2.33;1.60;;;25.90;40.50;;;;;;5107609;27;45312;-73
2022/07/28 09:24:53;;;;;;;1.65;1.48;;;25.90;40.30;;;;;;5107464;27;45249;-73
2022/07/28 09:27:20;;;;;;;1.63;1.50;;;25.90;40.40;;;;;;5107131;27;46665;-73
2022/07/28 09:29:47;;;;;;;6.50;2.10;;;26.00;40.30;;;;;;5107130;27;45220;-73
2022/07/28 09:32:16;;;;;;;2.17;1.77;;;26.00;40.60;;;;;;5107324;27;45184;-73
2022/07/28 09:34:44;;;;;;;3.47;1.80;;;26.00;40.40;;;;;;5107230;27;45313;-73
2022/07/28 09:37:18;;;;;;;2.53;1.58;;;26.10;40.40;;;;;;5106783;27;45203;-74
2022/07/28 09:39:45;;;;;;;3.00;1.55;;;26.10;40.50;;;;;;5106884;27;45301;-73
2022/07/28 09:42:12;;;;;;;2.22;1.70;;;26.10;40.70;;;;;;5107086;27;45139;-74
2022/07/28 09:44:39;;;;;;;1.73;1.60;;;26.10;40.50;;;;;;5106974;27;45261;-73
2022/07/28 09:47:23;;;;;;;2.42;1.60;;;26.10;40.80;;;;;;5106472;27;45432;-74
2022/07/28 09:49:50;;;;;;;1.85;1.70;;;26.20;40.60;;;;;;5107119;27;45156;-74
2022/07/28 09:52:38;;;;;;;2.10;1.83;;;26.20;40.70;;;;;;5106933;27;45342;-73
2022/07/28 09:55:06;;;;;;;2.13;1.67;;;26.30;40.70;;;;;;5106825;27;45283;-74
2022/07/28 09:57:34;;;;;;;1.90;1.75;;;26.30;40.80;;;;;;5106423;27;48282;-74
2022/07/28 10:00:01;;;;;;;2.25;1.80;;;26.30;40.80;;;;;;5106668;27;45232;-72
2022/07/28 10:02:30;;;;;;;2.95;1.92;;;26.30;40.70;;;;;;5106101;27;45367;-74
2022/07/28 10:04:58;;;;;;;3.85;1.95;;;26.40;40.80;;;;;;5107451;27;45546;-74
2022/07/28 10:07:27;;;;;;;3.10;1.55;;;26.50;40.80;;;;;;5110382;27;45457;-75
2022/07/28 10:09:57;;;;;;;3.03;1.70;;;26.60;40.70;;;;;;5110355;27;45269;-75
2022/07/28 10:12:25;;;;;;;1.98;1.73;;;26.70;41.20;;;;;;5110200;27;45193;-74
2022/07/28 10:14:52;;;;;;;1.73;1.60;;;26.60;40.60;;;;;;5110119;27;45236;-74
2022/07/28 10:17:27;;;;;;;3.17;2.00;;;26.60;40.80;;;;;;5110157;27;45492;-74
2022/07/28 10:19:57;;;;;;;1.63;1.52;;;26.60;40.70;;;;;;5110061;27;45240;-74
2022/07/28 10:22:26;;;;;;;1.65;1.45;;;26.70;40.80;;;;;;5110227;27;45273;-74
2022/07/28 10:24:53;;;;;;;2.53;1.85;;;26.70;40.80;;;;;;5110701;27;45242;-74
2022/07/28 10:27:21;;;;;;;2.15;1.77;;;26.70;40.60;;;;;;5109868;27;45249;-74
2022/07/28 10:29:48;;;;;;;2.60;1.63;;;26.70;40.70;;;;;;5110077;27;45211;-74
2022/07/28 10:32:15;;;;;;;2.10;1.90;;;26.80;40.80;;;;;;5110408;27;45197;-74
2022/07/28 10:34:44;;;;;;;3.22;1.90;;;26.80;40.70;;;;;;5107766;27;45383;-74
2022/07/28 10:37:18;;;;;;;3.92;1.95;;;26.90;40.80;;;;;;5109683;27;46915;-74
2022/07/28 10:39:49;;;;;;;3.53;2.08;;;26.90;40.70;;;;;;5109309;27;45380;-74
2022/07/28 10:42:16;;;;;;;3.85;1.77;;;26.90;41.00;;;;;;5110137;27;45195;-74
2022/07/28 10:44:44;;;;;;;5.25;2.00;;;26.80;41.00;;;;;;5109955;27;45279;-74
2022/07/28 10:47:10;;;;;;;1.92;1.77;;;27.00;41.20;;;;;;5109498;27;46829;-74
2022/07/28 10:49:37;;;;;;;2.33;1.90;;;27.10;40.80;;;;;;5109720;27;45135;-74
2022/07/28 10:52:05;;;;;;;4.40;1.95;;;27.00;40.80;;;;;;5109582;27;45146;-74
2022/07/28 10:54:34;;;;;;;2.70;1.90;;;27.00;41.00;;;;;;5109817;27;45269;-74
2022/07/28 10:57:02;;;;;;;3.30;1.73;;;27.10;41.00;;;;;;5109096;27;46550;-74
2022/07/28 11:00:00;;;;;;;3.10;1.90;;;27.20;41.00;;;;;;5108854;27;45254;-74
2022/07/28 11:02:43;;;;;;;4.25;1.90;;;27.40;40.80;;;;;;5109335;27;45252;-74
2022/07/28 11:05:25;;;;;;;1.70;1.60;;;27.50;40.60;;;;;;5107103;27;45191;-74
2022/07/28 11:07:52;;;;;;;4.47;2.00;;;27.50;40.40;;;;;;5088766;28;47304;-74
2022/07/28 11:10:21;;;;;;;2.00;1.90;;;27.50;40.30;;;;;;5088829;28;45245;-74
2022/07/28 11:12:48;;;;;;;5.40;2.22;;;27.50;40.30;;;;;;5088873;28;45330;-74
2022/07/28 11:15:32;;;;;;;2.63;1.77;;;27.50;40.40;;;;;;5088764;28;45580;-74
2022/07/28 11:18:00;;;;;;;4.57;2.10;;;27.60;40.20;;;;;;5086819;27;46420;-74
2022/07/28 11:21:06;;;;;;;2.60;2.03;;;27.60;40.90;;;;;;5088076;28;45309;-74
2022/07/28 11:24:00;;;;;;;3.20;2.10;;;27.60;40.20;;;;;;5080307;28;45209;-74
2022/07/28 11:26:35;;;;;;;4.20;2.17;;;27.80;40.50;;;;;;5040787;28;45582;-74
2022/07/28 11:29:20;;;;;;;4.68;2.53;;;27.90;39.80;;;;;;5091668;27;46689;-74
2022/07/28 11:32:06;;;;;;;4.63;3.60;;;27.80;40.00;;;;;;5100657;27;45467;-74
2022/07/28 11:35:18;;;;;;;4.13;3.28;;;27.90;40.10;;;;;;5087620;27;45126;-74
2022/07/28 11:38:11;;;;;;;8.45;2.78;;;28.00;39.80;;;;;;5088505;27;45531;-74
2022/07/28 11:40:40;;;;;;;2.80;2.50;;;28.10;39.40;;;;;;5086352;28;45582;-74
2022/07/28 11:43:30;;;;;;;4.28;2.00;;;28.20;39.40;;;;;;5085941;28;45376;-74
2022/07/28 11:46:24;;;;;;;2.83;1.98;;;28.20;39.20;;;;;;5084800;27;45333;-73
2022/07/28 11:49:18;;;;;;;3.42;2.25;;;28.30;39.30;;;;;;5093138;27;45270;-72
2022/07/28 11:52:16;;;;;;;5.35;2.08;;;28.40;39.20;;;;;;5101542;27;45579;-73
2022/07/28 11:54:47;;;;;;;2.55;2.10;;;28.50;39.20;;;;;;5083612;27;45371;-73
2022/07/28 11:57:14;;;;;;;2.67;2.10;;;28.50;38.70;;;;;;5105306;27;45344;-73
2022/07/28 11:59:47;;;;;;;2.80;2.22;;;28.60;38.80;;;;;;5103522;27;45201;-73
2022/07/28 12:02:26;;;;;;;4.60;2.40;;;28.60;38.70;;;;;;5087950;28;45206;-75
2022/07/28 12:04:57;;;;;;;3.70;2.20;;;28.60;38.60;;;;;;5087471;28;45199;-73
2022/07/28 12:07:42;;;;;;;2.85;2.30;;;28.70;38.70;;;;;;5087823;28;45401;-74
2022/07/28 12:10:35;;;;;;;2.13;2.00;;;28.90;38.30;;;;;;5087653;28;45266;-73
2022/07/28 12:13:03;;;;;;;3.80;2.42;;;28.90;38.30;;;;;;5086221;28;46403;-73
2022/07/28 12:15:31;;;;;;;2.50;2.13;;;28.80;38.40;;;;;;5084076;28;45448;-73
2022/07/28 12:17:59;;;;;;;4.55;2.50;;;28.90;38.40;;;;;;5084779;28;45412;-73
2022/07/28 12:20:30;;;;;;;3.58;2.10;;;29.10;38.50;;;;;;5085088;27;45443;-73
2022/07/28 12:23:03;;;;;;;3.35;2.30;;;29.20;38.40;;;;;;5099417;27;45398;-73
2022/07/28 12:25:30;;;;;;;4.45;3.20;;;29.40;38.00;;;;;;5093741;27;45324;-72
2022/07/28 12:27:58;;;;;;;4.03;2.70;;;29.40;37.70;;;;;;5100565;27;45453;-73
2022/07/28 12:30:26;;;;;;;2.83;2.53;;;29.50;37.80;;;;;;5092436;27;45411;-73
2022/07/28 12:32:54;;;;;;;3.28;2.20;;;29.60;37.70;;;;;;5086458;28;45456;-74
2022/07/28 12:35:21;;;;;;;2.80;2.05;;;29.60;37.40;;;;;;5086800;28;45270;-74
2022/07/28 12:37:49;;;;;;;7.72;5.75;;;29.70;37.30;;;;;;5097940;27;45323;-73
2022/07/28 12:40:16;;;;;;;10.00;6.38;;;29.80;37.30;;;;;;5107897;27;45246;-74
2022/07/28 12:42:43;;;;;;;5.82;3.90;;;29.90;37.20;;;;;;5107135;27;45366;-74
2022/07/28 12:45:11;;;;;;;5.82;4.50;;;29.90;37.10;;;;;;5107565;27;45259;-74
2022/07/28 12:47:38;;;;;;;5.70;4.53;;;30.00;37.00;;;;;;5106878;27;45146;-73
2022/07/28 12:50:12;;;;;;;9.02;3.42;;;30.00;37.00;;;;;;5085735;28;45440;-73
2022/07/28 12:52:38;;;;;;;3.78;2.67;;;30.00;36.50;;;;;;5087056;27;45461;-74
2022/07/28 12:55:22;;;;;;;2.58;2.38;;;30.10;37.00;;;;;;5086689;28;45426;-74
2022/07/28 12:57:50;;;;;;;3.40;2.17;;;30.20;36.60;;;;;;5071207;28;45348;-73
2022/07/28 13:00:19;;;;;;;6.00;2.50;;;30.30;36.40;;;;;;5073831;28;45362;-74
2022/07/28 13:02:46;;;;;;;6.88;2.45;;;30.30;36.20;;;;;;5070104;28;46380;-74
2022/07/28 13:08:15;;;;;;;3.13;2.25;;;30.30;36.10;;;;;;5084090;28;45471;-75